sensor_id;sensor_type;location;lat;lon;timestamp;temperature;humidity
28177;DHT22;15461;41.652;9.378;2022-07-23T00:01:35;24.40;99.90
28177;DHT22;15461;41.652;9.378;2022-07-23T00:04:01;24.30;99.90
28177;DHT22;15461;41.652;9.378;2022-07-23T00:06:27;24.30;99.90
28177;DHT22;15461;41.652;9.378;2022-07-23T00:08:53;24.30;99.90
28177;DHT22;15461;41.652;9.378;2022-07-23T00:11:19;24.20;99.90
28177;DHT22;15461;41.652;9.378;2022-07-23T00:13:45;24.10;99.90
28177;DHT22;15461;41.652;9.378;2022-07-23T00:16:11;24.10;99.90
28177;DHT22;15461;41.652;9.378;2022-07-23T00:18:37;24.10;99.90
28177;DHT22;15461;41.652;9.378;2022-07-23T00:21:03;24.10;99.90
28177;DHT22;15461;41.652;9.378;2022-07-23T00:23:30;24.10;99.90
28177;DHT22;15461;41.652;9.378;2022-07-23T00:25:56;24.00;99.90
28177;DHT22;15461;41.652;9.378;2022-07-23T00:28:22;24.00;99.90
28177;DHT22;15461;41.652;9.378;2022-07-23T00:30:48;24.00;99.90
28177;DHT22;15461;41.652;9.378;2022-07-23T00:33:14;24.00;99.90
28177;DHT22;15461;41.652;9.378;2022-07-23T00:35:40;24.00;99.90
28177;DHT22;15461;41.652;9.378;2022-07-23T00:38:08;23.90;99.90
28177;DHT22;15461;41.652;9.378;2022-07-23T00:40:35;23.80;99.90
28177;DHT22;15461;41.652;9.378;2022-07-23T00:43:02;23.60;99.90
28177;DHT22;15461;41.652;9.378;2022-07-23T00:45:28;23.60;99.90
28177;DHT22;15461;41.652;9.378;2022-07-23T00:47:54;23.60;99.90
28177;DHT22;15461;41.652;9.378;2022-07-23T00:50:20;23.70;99.90
28177;DHT22;15461;41.652;9.378;2022-07-23T00:52:46;23.80;99.90
28177;DHT22;15461;41.652;9.378;2022-07-23T00:55:12;23.80;99.90
28177;DHT22;15461;41.652;9.378;2022-07-23T00:57:40;23.90;99.90
28177;DHT22;15461;41.652;9.378;2022-07-23T01:00:10;23.80;99.90
28177;DHT22;15461;41.652;9.378;2022-07-23T01:02:37;23.80;99.90
28177;DHT22;15461;41.652;9.378;2022-07-23T01:05:04;23.70;99.90
28177;DHT22;15461;41.652;9.378;2022-07-23T01:07:30;23.70;99.90
28177;DHT22;15461;41.652;9.378;2022-07-23T01:09:56;23.60;99.90
28177;DHT22;15461;41.652;9.378;2022-07-23T01:12:22;23.50;99.90
28177;DHT22;15461;41.652;9.378;2022-07-23T01:14:56;23.60;99.90
28177;DHT22;15461;41.652;9.378;2022-07-23T01:17:22;23.50;99.90
28177;DHT22;15461;41.652;9.378;2022-07-23T01:19:48;23.50;99.90
28177;DHT22;15461;41.652;9.378;2022-07-23T01:22:15;23.50;99.90
28177;DHT22;15461;41.652;9.378;2022-07-23T01:24:43;23.50;99.90
28177;DHT22;15461;41.652;9.378;2022-07-23T01:27:09;23.50;99.90
28177;DHT22;15461;41.652;9.378;2022-07-23T01:29:37;23.40;99.90
28177;DHT22;15461;41.652;9.378;2022-07-23T01:32:08;23.30;99.90
28177;DHT22;15461;41.652;9.378;2022-07-23T01:34:34;23.20;99.90
28177;DHT22;15461;41.652;9.378;2022-07-23T01:37:00;23.30;99.90
28177;DHT22;15461;41.652;9.378;2022-07-23T01:39:26;23.30;99.90
28177;DHT22;15461;41.652;9.378;2022-07-23T01:41:52;23.30;99.90
28177;DHT22;15461;41.652;9.378;2022-07-23T01:44:20;23.30;99.90
28177;DHT22;15461;41.652;9.378;2022-07-23T01:46:46;23.30;99.90
28177;DHT22;15461;41.652;9.378;2022-07-23T01:49:12;23.30;99.90
28177;DHT22;15461;41.652;9.378;2022-07-23T01:51:56;23.30;99.90
28177;DHT22;15461;41.652;9.378;2022-07-23T01:54:28;23.40;99.90
28177;DHT22;15461;41.652;9.378;2022-07-23T01:56:54;23.40;99.90
28177;DHT22;15461;41.652;9.378;2022-07-23T01:59:20;23.40;99.90
28177;DHT22;15461;41.652;9.378;2022-07-23T02:01:46;23.40;99.90
28177;DHT22;15461;41.652;9.378;2022-07-23T02:04:13;23.30;99.90
28177;DHT22;15461;41.652;9.378;2022-07-23T02:06:39;23.40;99.90
28177;DHT22;15461;41.652;9.378;2022-07-23T02:09:04;23.40;99.90
28177;DHT22;15461;41.652;9.378;2022-07-23T02:11:30;23.40;99.90
28177;DHT22;15461;41.652;9.378;2022-07-23T02:13:56;23.40;99.90
28177;DHT22;15461;41.652;9.378;2022-07-23T02:16:22;23.40;99.90
28177;DHT22;15461;41.652;9.378;2022-07-23T02:18:48;23.40;99.90
28177;DHT22;15461;41.652;9.378;2022-07-23T02:21:14;23.40;99.90
28177;DHT22;15461;41.652;9.378;2022-07-23T02:23:40;23.40;99.90
28177;DHT22;15461;41.652;9.378;2022-07-23T02:26:06;23.40;99.90
28177;DHT22;15461;41.652;9.378;2022-07-23T02:28:32;23.40;99.90
28177;DHT22;15461;41.652;9.378;2022-07-23T02:30:58;23.40;99.90
28177;DHT22;15461;41.652;9.378;2022-07-23T02:33:24;23.30;99.90
28177;DHT22;15461;41.652;9.378;2022-07-23T02:35:50;23.20;99.90
28177;DHT22;15461;41.652;9.378;2022-07-23T02:38:18;23.20;99.90
28177;DHT22;15461;41.652;9.378;2022-07-23T02:40:45;23.10;99.90
28177;DHT22;15461;41.652;9.378;2022-07-23T02:43:11;23.10;99.90
28177;DHT22;15461;41.652;9.378;2022-07-23T02:45:38;23.10;99.90
28177;DHT22;15461;41.652;9.378;2022-07-23T02:48:04;23.10;99.90
28177;DHT22;15461;41.652;9.378;2022-07-23T02:50:30;23.10;99.90
28177;DHT22;15461;41.652;9.378;2022-07-23T02:52:58;23.10;99.90
28177;DHT22;15461;41.652;9.378;2022-07-23T02:55:24;23.10;99.90
28177;DHT22;15461;41.652;9.378;2022-07-23T02:57:51;23.10;99.90
28177;DHT22;15461;41.652;9.378;2022-07-23T03:00:18;23.00;99.90
28177;DHT22;15461;41.652;9.378;2022-07-23T03:02:44;23.00;99.90
28177;DHT22;15461;41.652;9.378;2022-07-23T03:05:10;23.00;99.90
28177;DHT22;15461;41.652;9.378;2022-07-23T03:07:37;23.00;99.90
28177;DHT22;15461;41.652;9.378;2022-07-23T03:10:04;23.00;99.90
28177;DHT22;15461;41.652;9.378;2022-07-23T03:12:30;23.00;99.90
28177;DHT22;15461;41.652;9.378;2022-07-23T03:14:56;23.00;99.90
28177;DHT22;15461;41.652;9.378;2022-07-23T03:17:22;23.00;99.90
28177;DHT22;15461;41.652;9.378;2022-07-23T03:19:48;23.00;99.90
28177;DHT22;15461;41.652;9.378;2022-07-23T03:22:14;23.00;99.90
28177;DHT22;15461;41.652;9.378;2022-07-23T03:24:40;23.00;99.90
28177;DHT22;15461;41.652;9.378;2022-07-23T03:27:31;22.90;99.90
28177;DHT22;15461;41.652;9.378;2022-07-23T03:29:58;22.90;99.90
28177;DHT22;15461;41.652;9.378;2022-07-23T03:32:25;22.90;99.90
28177;DHT22;15461;41.652;9.378;2022-07-23T03:34:52;22.90;99.90
28177;DHT22;15461;41.652;9.378;2022-07-23T03:37:18;22.80;99.90
28177;DHT22;15461;41.652;9.378;2022-07-23T03:39:45;22.80;99.90
28177;DHT22;15461;41.652;9.378;2022-07-23T03:42:11;22.80;99.90
28177;DHT22;15461;41.652;9.378;2022-07-23T03:44:37;22.70;99.90
28177;DHT22;15461;41.652;9.378;2022-07-23T03:47:05;22.70;99.90
28177;DHT22;15461;41.652;9.378;2022-07-23T03:49:31;22.70;99.90
28177;DHT22;15461;41.652;9.378;2022-07-23T03:51:57;22.70;99.90
28177;DHT22;15461;41.652;9.378;2022-07-23T03:54:23;22.70;99.90
28177;DHT22;15461;41.652;9.378;2022-07-23T03:56:49;22.70;99.90
28177;DHT22;15461;41.652;9.378;2022-07-23T03:59:16;22.60;99.90
28177;DHT22;15461;41.652;9.378;2022-07-23T04:01:42;22.60;99.90
28177;DHT22;15461;41.652;9.378;2022-07-23T04:04:09;22.60;99.90
28177;DHT22;15461;41.652;9.378;2022-07-23T04:06:37;22.60;99.90
28177;DHT22;15461;41.652;9.378;2022-07-23T04:09:03;22.60;99.90
28177;DHT22;15461;41.652;9.378;2022-07-23T04:11:31;22.60;99.90
28177;DHT22;15461;41.652;9.378;2022-07-23T04:13:57;22.60;99.90
28177;DHT22;15461;41.652;9.378;2022-07-23T04:16:23;22.50;99.90
28177;DHT22;15461;41.652;9.378;2022-07-23T04:18:49;22.50;99.90
28177;DHT22;15461;41.652;9.378;2022-07-23T04:21:18;22.40;99.90
28177;DHT22;15461;41.652;9.378;2022-07-23T04:23:45;22.40;99.90
28177;DHT22;15461;41.652;9.378;2022-07-23T04:26:12;22.30;99.90
28177;DHT22;15461;41.652;9.378;2022-07-23T04:28:39;22.30;99.90
28177;DHT22;15461;41.652;9.378;2022-07-23T04:31:05;22.30;99.90
28177;DHT22;15461;41.652;9.378;2022-07-23T04:33:32;22.30;99.90
28177;DHT22;15461;41.652;9.378;2022-07-23T04:36:02;22.30;99.90
28177;DHT22;15461;41.652;9.378;2022-07-23T04:38:28;22.40;99.90
28177;DHT22;15461;41.652;9.378;2022-07-23T04:40:58;22.40;99.90
28177;DHT22;15461;41.652;9.378;2022-07-23T04:43:25;22.40;99.90
28177;DHT22;15461;41.652;9.378;2022-07-23T04:45:58;22.40;99.90
28177;DHT22;15461;41.652;9.378;2022-07-23T04:48:25;22.40;99.90
28177;DHT22;15461;41.652;9.378;2022-07-23T04:51:02;22.40;99.90
28177;DHT22;15461;41.652;9.378;2022-07-23T04:53:29;22.50;99.90
28177;DHT22;15461;41.652;9.378;2022-07-23T04:55:59;22.50;99.90
28177;DHT22;15461;41.652;9.378;2022-07-23T04:58:25;22.60;99.90
28177;DHT22;15461;41.652;9.378;2022-07-23T05:00:51;22.60;99.90
28177;DHT22;15461;41.652;9.378;2022-07-23T05:03:18;22.80;99.90
28177;DHT22;15461;41.652;9.378;2022-07-23T05:09:33;23.00;99.90
28177;DHT22;15461;41.652;9.378;2022-07-23T05:12:00;23.20;99.90
28177;DHT22;15461;41.652;9.378;2022-07-23T05:14:26;23.30;99.90
28177;DHT22;15461;41.652;9.378;2022-07-23T05:16:54;23.40;99.90
28177;DHT22;15461;41.652;9.378;2022-07-23T05:19:22;23.60;99.90
28177;DHT22;15461;41.652;9.378;2022-07-23T05:21:48;23.80;99.90
28177;DHT22;15461;41.652;9.378;2022-07-23T05:24:15;24.00;99.90
28177;DHT22;15461;41.652;9.378;2022-07-23T05:26:41;24.30;99.90
28177;DHT22;15461;41.652;9.378;2022-07-23T05:29:06;24.50;99.90
28177;DHT22;15461;41.652;9.378;2022-07-23T05:31:32;24.70;99.90
28177;DHT22;15461;41.652;9.378;2022-07-23T05:33:59;24.90;99.90
28177;DHT22;15461;41.652;9.378;2022-07-23T05:36:25;25.10;99.90
28177;DHT22;15461;41.652;9.378;2022-07-23T05:38:54;25.30;99.90
28177;DHT22;15461;41.652;9.378;2022-07-23T05:41:20;25.50;99.90
28177;DHT22;15461;41.652;9.378;2022-07-23T05:43:46;25.60;99.90
28177;DHT22;15461;41.652;9.378;2022-07-23T05:46:14;25.80;99.90
28177;DHT22;15461;41.652;9.378;2022-07-23T05:48:41;25.90;99.90
28177;DHT22;15461;41.652;9.378;2022-07-23T05:51:24;26.10;99.90
28177;DHT22;15461;41.652;9.378;2022-07-23T05:53:51;26.20;99.90
28177;DHT22;15461;41.652;9.378;2022-07-23T05:56:23;26.40;99.90
28177;DHT22;15461;41.652;9.378;2022-07-23T05:58:49;26.40;99.90
28177;DHT22;15461;41.652;9.378;2022-07-23T06:01:17;26.50;99.90
28177;DHT22;15461;41.652;9.378;2022-07-23T06:03:49;26.70;99.90
28177;DHT22;15461;41.652;9.378;2022-07-23T06:06:15;26.80;99.90
28177;DHT22;15461;41.652;9.378;2022-07-23T06:08:41;26.90;99.90
28177;DHT22;15461;41.652;9.378;2022-07-23T06:11:08;27.00;99.90
28177;DHT22;15461;41.652;9.378;2022-07-23T06:13:35;27.20;99.90
28177;DHT22;15461;41.652;9.378;2022-07-23T06:16:01;27.30;99.90
28177;DHT22;15461;41.652;9.378;2022-07-23T06:18:27;27.50;99.90
28177;DHT22;15461;41.652;9.378;2022-07-23T06:20:53;27.60;99.90
28177;DHT22;15461;41.652;9.378;2022-07-23T06:23:20;27.70;99.90
28177;DHT22;15461;41.652;9.378;2022-07-23T06:25:47;27.90;99.90
28177;DHT22;15461;41.652;9.378;2022-07-23T06:28:12;28.00;99.90
28177;DHT22;15461;41.652;9.378;2022-07-23T06:30:41;28.10;99.90
28177;DHT22;15461;41.652;9.378;2022-07-23T06:33:07;28.20;99.90
28177;DHT22;15461;41.652;9.378;2022-07-23T06:35:34;28.30;99.90
28177;DHT22;15461;41.652;9.378;2022-07-23T06:38:00;28.50;99.90
28177;DHT22;15461;41.652;9.378;2022-07-23T06:40:26;28.60;99.90
28177;DHT22;15461;41.652;9.378;2022-07-23T06:42:52;28.60;99.90
28177;DHT22;15461;41.652;9.378;2022-07-23T06:45:22;28.70;99.90
28177;DHT22;15461;41.652;9.378;2022-07-23T06:47:48;28.70;99.90
28177;DHT22;15461;41.652;9.378;2022-07-23T06:50:14;28.90;99.90
28177;DHT22;15461;41.652;9.378;2022-07-23T06:52:41;29.10;99.90
28177;DHT22;15461;41.652;9.378;2022-07-23T06:55:07;29.20;99.90
28177;DHT22;15461;41.652;9.378;2022-07-23T06:57:33;29.30;99.90
28177;DHT22;15461;41.652;9.378;2022-07-23T06:59:59;29.40;99.90
28177;DHT22;15461;41.652;9.378;2022-07-23T07:02:25;29.50;99.90
28177;DHT22;15461;41.652;9.378;2022-07-23T07:04:53;29.60;99.90
28177;DHT22;15461;41.652;9.378;2022-07-23T07:07:19;29.70;99.90
28177;DHT22;15461;41.652;9.378;2022-07-23T07:09:45;29.70;99.90
28177;DHT22;15461;41.652;9.378;2022-07-23T07:12:11;29.90;99.90
28177;DHT22;15461;41.652;9.378;2022-07-23T07:14:37;30.00;99.90
28177;DHT22;15461;41.652;9.378;2022-07-23T07:17:03;30.00;99.90
28177;DHT22;15461;41.652;9.378;2022-07-23T07:19:29;30.20;99.90
28177;DHT22;15461;41.652;9.378;2022-07-23T07:21:55;30.30;99.90
28177;DHT22;15461;41.652;9.378;2022-07-23T07:24:21;30.40;99.90
28177;DHT22;15461;41.652;9.378;2022-07-23T07:26:47;30.50;99.90
28177;DHT22;15461;41.652;9.378;2022-07-23T07:29:13;30.40;99.90
28177;DHT22;15461;41.652;9.378;2022-07-23T07:31:39;30.40;99.90
28177;DHT22;15461;41.652;9.378;2022-07-23T07:34:04;30.40;99.90
28177;DHT22;15461;41.652;9.378;2022-07-23T07:36:30;30.50;99.90
28177;DHT22;15461;41.652;9.378;2022-07-23T07:38:56;30.50;99.90
28177;DHT22;15461;41.652;9.378;2022-07-23T07:41:22;30.60;99.90
28177;DHT22;15461;41.652;9.378;2022-07-23T07:43:50;30.60;99.90
28177;DHT22;15461;41.652;9.378;2022-07-23T07:46:19;30.70;99.90
28177;DHT22;15461;41.652;9.378;2022-07-23T07:48:45;30.90;99.90
28177;DHT22;15461;41.652;9.378;2022-07-23T07:51:11;30.90;99.90
28177;DHT22;15461;41.652;9.378;2022-07-23T07:53:37;30.90;99.90
28177;DHT22;15461;41.652;9.378;2022-07-23T07:56:04;30.90;99.90
28177;DHT22;15461;41.652;9.378;2022-07-23T07:58:30;30.90;99.90
28177;DHT22;15461;41.652;9.378;2022-07-23T08:00:56;31.00;99.90
28177;DHT22;15461;41.652;9.378;2022-07-23T08:03:22;31.10;99.90
28177;DHT22;15461;41.652;9.378;2022-07-23T08:05:48;31.20;99.90
28177;DHT22;15461;41.652;9.378;2022-07-23T08:08:13;31.30;99.90
28177;DHT22;15461;41.652;9.378;2022-07-23T08:10:41;31.40;99.90
28177;DHT22;15461;41.652;9.378;2022-07-23T08:13:07;31.60;99.90
28177;DHT22;15461;41.652;9.378;2022-07-23T08:15:33;31.60;99.90
28177;DHT22;15461;41.652;9.378;2022-07-23T08:17:59;31.60;99.90
28177;DHT22;15461;41.652;9.378;2022-07-23T08:20:26;31.70;99.90
28177;DHT22;15461;41.652;9.378;2022-07-23T08:22:54;31.80;99.90
28177;DHT22;15461;41.652;9.378;2022-07-23T08:25:37;31.80;99.90
28177;DHT22;15461;41.652;9.378;2022-07-23T08:28:04;31.90;99.90
28177;DHT22;15461;41.652;9.378;2022-07-23T08:30:31;31.80;99.90
28177;DHT22;15461;41.652;9.378;2022-07-23T08:33:09;31.90;99.90
28177;DHT22;15461;41.652;9.378;2022-07-23T08:35:44;31.80;99.90
28177;DHT22;15461;41.652;9.378;2022-07-23T08:38:14;31.80;99.90
28177;DHT22;15461;41.652;9.378;2022-07-23T08:40:43;31.80;99.90
28177;DHT22;15461;41.652;9.378;2022-07-23T08:43:21;31.80;99.90
28177;DHT22;15461;41.652;9.378;2022-07-23T08:45:49;31.90;99.90
28177;DHT22;15461;41.652;9.378;2022-07-23T08:48:19;31.90;99.90
28177;DHT22;15461;41.652;9.378;2022-07-23T08:50:50;32.00;99.90
28177;DHT22;15461;41.652;9.378;2022-07-23T08:53:18;32.00;99.90
28177;DHT22;15461;41.652;9.378;2022-07-23T08:55:46;32.20;99.90
28177;DHT22;15461;41.652;9.378;2022-07-23T08:58:13;32.30;99.90
28177;DHT22;15461;41.652;9.378;2022-07-23T09:00:40;32.40;99.90
28177;DHT22;15461;41.652;9.378;2022-07-23T09:03:06;32.40;99.90
28177;DHT22;15461;41.652;9.378;2022-07-23T09:05:32;32.50;99.90
28177;DHT22;15461;41.652;9.378;2022-07-23T09:08:11;32.50;99.90
28177;DHT22;15461;41.652;9.378;2022-07-23T09:16:11;32.50;99.90
28177;DHT22;15461;41.652;9.378;2022-07-23T09:18:50;32.50;99.90
28177;DHT22;15461;41.652;9.378;2022-07-23T09:21:30;32.50;99.90
28177;DHT22;15461;41.652;9.378;2022-07-23T09:24:04;32.60;99.90
28177;DHT22;15461;41.652;9.378;2022-07-23T09:26:34;32.70;99.90
28177;DHT22;15461;41.652;9.378;2022-07-23T09:29:05;32.80;99.90
28177;DHT22;15461;41.652;9.378;2022-07-23T09:31:34;32.90;99.90
28177;DHT22;15461;41.652;9.378;2022-07-23T09:34:11;32.90;99.90
28177;DHT22;15461;41.652;9.378;2022-07-23T09:36:37;32.90;99.90
28177;DHT22;15461;41.652;9.378;2022-07-23T09:39:04;32.90;99.90
28177;DHT22;15461;41.652;9.378;2022-07-23T09:41:39;33.00;99.90
28177;DHT22;15461;41.652;9.378;2022-07-23T09:44:19;33.10;99.90
28177;DHT22;15461;41.652;9.378;2022-07-23T09:46:48;33.10;99.90
28177;DHT22;15461;41.652;9.378;2022-07-23T09:49:22;33.10;99.90
28177;DHT22;15461;41.652;9.378;2022-07-23T09:51:59;33.00;99.90
28177;DHT22;15461;41.652;9.378;2022-07-23T09:54:38;32.90;99.90
28177;DHT22;15461;41.652;9.378;2022-07-23T09:57:10;32.90;99.90
28177;DHT22;15461;41.652;9.378;2022-07-23T09:59:42;32.90;99.90
28177;DHT22;15461;41.652;9.378;2022-07-23T10:02:11;32.80;99.90
28177;DHT22;15461;41.652;9.378;2022-07-23T10:05:10;32.70;99.90
28177;DHT22;15461;41.652;9.378;2022-07-23T10:07:54;32.70;99.90
28177;DHT22;15461;41.652;9.378;2022-07-23T10:10:53;32.80;99.90
28177;DHT22;15461;41.652;9.378;2022-07-23T10:13:43;32.80;99.90
28177;DHT22;15461;41.652;9.378;2022-07-23T10:16:24;32.80;99.90
28177;DHT22;15461;41.652;9.378;2022-07-23T10:18:50;32.90;99.90
28177;DHT22;15461;41.652;9.378;2022-07-23T10:21:22;33.00;99.90
28177;DHT22;15461;41.652;9.378;2022-07-23T10:29:54;33.30;99.90
28177;DHT22;15461;41.652;9.378;2022-07-23T10:33:20;33.20;99.90
28177;DHT22;15461;41.652;9.378;2022-07-23T10:38:13;33.50;99.90
28177;DHT22;15461;41.652;9.378;2022-07-23T10:41:00;33.50;99.90
28177;DHT22;15461;41.652;9.378;2022-07-23T10:43:27;33.70;99.90
28177;DHT22;15461;41.652;9.378;2022-07-23T10:45:54;33.90;99.90
28177;DHT22;15461;41.652;9.378;2022-07-23T10:48:26;34.00;99.90
28177;DHT22;15461;41.652;9.378;2022-07-23T10:51:13;34.20;99.90
28177;DHT22;15461;41.652;9.378;2022-07-23T10:56:15;34.10;99.90
28177;DHT22;15461;41.652;9.378;2022-07-23T10:58:49;34.00;99.90
28177;DHT22;15461;41.652;9.378;2022-07-23T11:01:34;34.00;99.90
28177;DHT22;15461;41.652;9.378;2022-07-23T11:04:02;33.80;99.90
28177;DHT22;15461;41.652;9.378;2022-07-23T11:09:29;33.40;99.90
28177;DHT22;15461;41.652;9.378;2022-07-23T11:15:18;33.00;99.90
28177;DHT22;15461;41.652;9.378;2022-07-23T11:20:15;33.20;99.90
28177;DHT22;15461;41.652;9.378;2022-07-23T11:22:46;33.20;99.90
28177;DHT22;15461;41.652;9.378;2022-07-23T11:25:28;33.20;99.90
28177;DHT22;15461;41.652;9.378;2022-07-23T11:27:55;33.10;99.90
28177;DHT22;15461;41.652;9.378;2022-07-23T11:33:16;32.60;99.90
28177;DHT22;15461;41.652;9.378;2022-07-23T11:35:42;32.20;99.90
28177;DHT22;15461;41.652;9.378;2022-07-23T11:38:20;32.30;99.90
28177;DHT22;15461;41.652;9.378;2022-07-23T11:40:49;32.20;99.90
28177;DHT22;15461;41.652;9.378;2022-07-23T11:43:17;32.30;99.90
28177;DHT22;15461;41.652;9.378;2022-07-23T11:45:45;32.20;99.90
28177;DHT22;15461;41.652;9.378;2022-07-23T11:48:22;32.10;99.90
28177;DHT22;15461;41.652;9.378;2022-07-23T11:50:50;32.10;99.90
28177;DHT22;15461;41.652;9.378;2022-07-23T11:53:31;32.00;99.90
28177;DHT22;15461;41.652;9.378;2022-07-23T11:56:08;32.00;99.90
28177;DHT22;15461;41.652;9.378;2022-07-23T11:58:36;32.10;99.90
28177;DHT22;15461;41.652;9.378;2022-07-23T12:01:02;32.20;99.90
28177;DHT22;15461;41.652;9.378;2022-07-23T12:03:29;32.50;99.90
28177;DHT22;15461;41.652;9.378;2022-07-23T12:05:59;32.70;99.90
28177;DHT22;15461;41.652;9.378;2022-07-23T12:08:25;32.90;99.90
28177;DHT22;15461;41.652;9.378;2022-07-23T12:10:51;33.10;99.90
28177;DHT22;15461;41.652;9.378;2022-07-23T12:13:19;32.90;99.90
28177;DHT22;15461;41.652;9.378;2022-07-23T12:15:50;32.70;99.90
28177;DHT22;15461;41.652;9.378;2022-07-23T12:18:21;32.70;99.90
28177;DHT22;15461;41.652;9.378;2022-07-23T12:20:52;32.90;99.90
28177;DHT22;15461;41.652;9.378;2022-07-23T12:23:20;33.20;99.90
28177;DHT22;15461;41.652;9.378;2022-07-23T12:25:47;33.40;99.90
28177;DHT22;15461;41.652;9.378;2022-07-23T12:28:18;33.50;99.90
28177;DHT22;15461;41.652;9.378;2022-07-23T12:33:51;33.40;99.90
28177;DHT22;15461;41.652;9.378;2022-07-23T12:36:17;33.40;99.90
28177;DHT22;15461;41.652;9.378;2022-07-23T12:38:47;33.40;99.90
28177;DHT22;15461;41.652;9.378;2022-07-23T12:41:14;33.40;99.90
28177;DHT22;15461;41.652;9.378;2022-07-23T12:43:43;33.30;99.90
28177;DHT22;15461;41.652;9.378;2022-07-23T12:46:18;33.20;99.90
28177;DHT22;15461;41.652;9.378;2022-07-23T12:51:30;33.40;99.90
28177;DHT22;15461;41.652;9.378;2022-07-23T12:54:03;33.30;99.90
28177;DHT22;15461;41.652;9.378;2022-07-23T12:56:34;33.30;99.90
28177;DHT22;15461;41.652;9.378;2022-07-23T13:01:39;33.60;99.90
28177;DHT22;15461;41.652;9.378;2022-07-23T13:04:11;33.60;99.90
28177;DHT22;15461;41.652;9.378;2022-07-23T13:06:41;33.70;99.90
28177;DHT22;15461;41.652;9.378;2022-07-23T13:09:08;33.70;99.90
28177;DHT22;15461;41.652;9.378;2022-07-23T13:11:35;33.90;99.90
28177;DHT22;15461;41.652;9.378;2022-07-23T13:14:01;33.90;99.90
28177;DHT22;15461;41.652;9.378;2022-07-23T13:16:28;33.50;99.90
28177;DHT22;15461;41.652;9.378;2022-07-23T13:18:54;33.50;99.90
28177;DHT22;15461;41.652;9.378;2022-07-23T13:21:22;33.20;99.90
28177;DHT22;15461;41.652;9.378;2022-07-23T13:23:48;33.00;99.90
28177;DHT22;15461;41.652;9.378;2022-07-23T13:26:15;32.80;99.90
28177;DHT22;15461;41.652;9.378;2022-07-23T13:28:42;32.70;99.90
28177;DHT22;15461;41.652;9.378;2022-07-23T13:31:08;32.60;99.90
28177;DHT22;15461;41.652;9.378;2022-07-23T13:33:35;32.90;99.90
28177;DHT22;15461;41.652;9.378;2022-07-23T13:36:01;33.00;99.90
28177;DHT22;15461;41.652;9.378;2022-07-23T13:38:28;33.20;99.90
28177;DHT22;15461;41.652;9.378;2022-07-23T13:40:54;33.40;99.90
28177;DHT22;15461;41.652;9.378;2022-07-23T13:43:22;33.40;99.90
28177;DHT22;15461;41.652;9.378;2022-07-23T13:45:49;33.00;99.90
28177;DHT22;15461;41.652;9.378;2022-07-23T13:48:16;33.20;99.90
28177;DHT22;15461;41.652;9.378;2022-07-23T13:50:43;33.00;99.90
28177;DHT22;15461;41.652;9.378;2022-07-23T13:53:11;32.70;99.90
28177;DHT22;15461;41.652;9.378;2022-07-23T13:55:39;32.80;99.90
28177;DHT22;15461;41.652;9.378;2022-07-23T13:58:06;32.90;99.90
28177;DHT22;15461;41.652;9.378;2022-07-23T14:00:34;32.90;99.90
28177;DHT22;15461;41.652;9.378;2022-07-23T14:03:01;32.90;99.90
28177;DHT22;15461;41.652;9.378;2022-07-23T14:05:28;32.80;99.90
28177;DHT22;15461;41.652;9.378;2022-07-23T14:07:54;32.70;99.90
28177;DHT22;15461;41.652;9.378;2022-07-23T14:10:21;32.70;99.90
28177;DHT22;15461;41.652;9.378;2022-07-23T14:12:49;32.80;99.90
28177;DHT22;15461;41.652;9.378;2022-07-23T14:15:16;32.80;99.90
28177;DHT22;15461;41.652;9.378;2022-07-23T14:17:45;32.70;99.90
28177;DHT22;15461;41.652;9.378;2022-07-23T14:20:12;32.70;99.90
28177;DHT22;15461;41.652;9.378;2022-07-23T14:22:40;32.70;99.90
28177;DHT22;15461;41.652;9.378;2022-07-23T14:25:08;32.50;99.90
28177;DHT22;15461;41.652;9.378;2022-07-23T14:27:34;32.60;99.90
28177;DHT22;15461;41.652;9.378;2022-07-23T14:30:01;32.50;99.90
28177;DHT22;15461;41.652;9.378;2022-07-23T14:32:27;32.40;99.90
28177;DHT22;15461;41.652;9.378;2022-07-23T14:34:53;32.50;99.90
28177;DHT22;15461;41.652;9.378;2022-07-23T14:37:19;32.40;99.90
28177;DHT22;15461;41.652;9.378;2022-07-23T14:39:45;32.30;99.90
28177;DHT22;15461;41.652;9.378;2022-07-23T14:42:11;32.40;99.90
28177;DHT22;15461;41.652;9.378;2022-07-23T14:44:38;32.30;99.90
28177;DHT22;15461;41.652;9.378;2022-07-23T14:47:05;32.30;99.90
28177;DHT22;15461;41.652;9.378;2022-07-23T14:49:32;32.30;99.90
28177;DHT22;15461;41.652;9.378;2022-07-23T14:51:58;32.30;99.90
28177;DHT22;15461;41.652;9.378;2022-07-23T14:54:25;32.20;99.90
28177;DHT22;15461;41.652;9.378;2022-07-23T14:56:53;32.30;99.90
28177;DHT22;15461;41.652;9.378;2022-07-23T14:59:19;32.40;99.90
28177;DHT22;15461;41.652;9.378;2022-07-23T15:01:45;32.40;99.90
28177;DHT22;15461;41.652;9.378;2022-07-23T15:04:11;32.40;99.90
28177;DHT22;15461;41.652;9.378;2022-07-23T15:06:37;32.50;99.90
28177;DHT22;15461;41.652;9.378;2022-07-23T15:09:05;32.50;99.90
28177;DHT22;15461;41.652;9.378;2022-07-23T15:11:31;32.50;99.90
28177;DHT22;15461;41.652;9.378;2022-07-23T15:14:00;32.60;99.90
28177;DHT22;15461;41.652;9.378;2022-07-23T15:16:27;32.60;99.90
28177;DHT22;15461;41.652;9.378;2022-07-23T15:18:53;32.50;99.90
28177;DHT22;15461;41.652;9.378;2022-07-23T15:21:20;32.40;99.90
28177;DHT22;15461;41.652;9.378;2022-07-23T15:23:46;32.30;99.90
28177;DHT22;15461;41.652;9.378;2022-07-23T15:26:12;32.40;99.90
28177;DHT22;15461;41.652;9.378;2022-07-23T15:28:40;32.40;99.90
28177;DHT22;15461;41.652;9.378;2022-07-23T15:31:07;32.30;99.90
28177;DHT22;15461;41.652;9.378;2022-07-23T15:33:33;32.10;99.90
28177;DHT22;15461;41.652;9.378;2022-07-23T15:35:59;32.00;99.90
28177;DHT22;15461;41.652;9.378;2022-07-23T15:42:12;32.10;99.90
28177;DHT22;15461;41.652;9.378;2022-07-23T15:44:38;32.30;99.90
28177;DHT22;15461;41.652;9.378;2022-07-23T15:47:04;32.20;99.90
28177;DHT22;15461;41.652;9.378;2022-07-23T15:49:30;32.30;99.90
28177;DHT22;15461;41.652;9.378;2022-07-23T15:51:56;32.50;99.90
28177;DHT22;15461;41.652;9.378;2022-07-23T15:54:22;32.60;99.90
28177;DHT22;15461;41.652;9.378;2022-07-23T15:56:48;32.60;99.90
28177;DHT22;15461;41.652;9.378;2022-07-23T15:59:13;32.50;99.90
28177;DHT22;15461;41.652;9.378;2022-07-23T16:01:39;32.40;99.90
28177;DHT22;15461;41.652;9.378;2022-07-23T16:04:05;32.20;99.90
28177;DHT22;15461;41.652;9.378;2022-07-23T16:06:33;32.10;99.90
28177;DHT22;15461;41.652;9.378;2022-07-23T16:08:59;32.00;99.90
28177;DHT22;15461;41.652;9.378;2022-07-23T16:11:25;32.10;99.90
28177;DHT22;15461;41.652;9.378;2022-07-23T16:13:51;32.30;99.90
28177;DHT22;15461;41.652;9.378;2022-07-23T16:16:17;32.00;99.90
28177;DHT22;15461;41.652;9.378;2022-07-23T16:18:43;31.90;99.90
28177;DHT22;15461;41.652;9.378;2022-07-23T16:21:10;31.90;99.90